sensor_id;sensor_type;location;lat;lon;timestamp;temperature;humidity
11140;DHT22;5624;49.388;11.350;2023-07-16T00:00:11;19.70;99.90
11140;DHT22;5624;49.388;11.350;2023-07-16T00:02:38;19.60;99.90
11140;DHT22;5624;49.388;11.350;2023-07-16T00:05:04;19.60;99.90
11140;DHT22;5624;49.388;11.350;2023-07-16T00:07:29;19.50;99.90
11140;DHT22;5624;49.388;11.350;2023-07-16T00:09:55;19.60;99.90
11140;DHT22;5624;49.388;11.350;2023-07-16T00:12:20;19.60;99.90
11140;DHT22;5624;49.388;11.350;2023-07-16T00:14:47;19.50;99.90
11140;DHT22;5624;49.388;11.350;2023-07-16T00:17:12;19.50;99.90
11140;DHT22;5624;49.388;11.350;2023-07-16T00:19:38;19.50;99.90
11140;DHT22;5624;49.388;11.350;2023-07-16T00:22:04;19.50;99.90
11140;DHT22;5624;49.388;11.350;2023-07-16T00:24:29;19.50;99.90
11140;DHT22;5624;49.388;11.350;2023-07-16T00:26:55;19.50;99.90
11140;DHT22;5624;49.388;11.350;2023-07-16T00:29:20;19.60;99.90
11140;DHT22;5624;49.388;11.350;2023-07-16T00:31:46;19.60;99.90
11140;DHT22;5624;49.388;11.350;2023-07-16T00:34:11;19.50;99.90
11140;DHT22;5624;49.388;11.350;2023-07-16T00:36:38;19.50;99.90
11140;DHT22;5624;49.388;11.350;2023-07-16T00:39:03;19.50;99.90
11140;DHT22;5624;49.388;11.350;2023-07-16T00:41:29;19.50;99.90
11140;DHT22;5624;49.388;11.350;2023-07-16T00:43:54;19.50;99.90
11140;DHT22;5624;49.388;11.350;2023-07-16T00:46:20;19.50;99.90
11140;DHT22;5624;49.388;11.350;2023-07-16T00:48:46;19.50;99.90
11140;DHT22;5624;49.388;11.350;2023-07-16T00:51:12;19.50;99.90
11140;DHT22;5624;49.388;11.350;2023-07-16T00:53:40;19.50;99.90
11140;DHT22;5624;49.388;11.350;2023-07-16T00:56:07;19.50;99.90
11140;DHT22;5624;49.388;11.350;2023-07-16T00:58:33;19.50;99.90
11140;DHT22;5624;49.388;11.350;2023-07-16T01:00:59;19.50;99.90
11140;DHT22;5624;49.388;11.350;2023-07-16T01:03:25;19.50;99.90
11140;DHT22;5624;49.388;11.350;2023-07-16T01:06:10;19.40;99.90
11140;DHT22;5624;49.388;11.350;2023-07-16T01:08:49;19.40;99.90
11140;DHT22;5624;49.388;11.350;2023-07-16T01:11:19;19.40;99.90
11140;DHT22;5624;49.388;11.350;2023-07-16T01:13:44;19.40;99.90
11140;DHT22;5624;49.388;11.350;2023-07-16T01:16:21;19.40;99.90
11140;DHT22;5624;49.388;11.350;2023-07-16T01:18:47;19.40;99.90
11140;DHT22;5624;49.388;11.350;2023-07-16T01:21:13;19.40;99.90
11140;DHT22;5624;49.388;11.350;2023-07-16T01:23:41;19.40;99.90
11140;DHT22;5624;49.388;11.350;2023-07-16T01:26:32;19.40;99.90
11140;DHT22;5624;49.388;11.350;2023-07-16T01:32:15;19.40;99.90
11140;DHT22;5624;49.388;11.350;2023-07-16T01:34:41;19.40;99.90
11140;DHT22;5624;49.388;11.350;2023-07-16T01:37:08;19.30;99.90
11140;DHT22;5624;49.388;11.350;2023-07-16T01:39:34;19.30;99.90
11140;DHT22;5624;49.388;11.350;2023-07-16T01:42:00;19.30;99.90
11140;DHT22;5624;49.388;11.350;2023-07-16T01:44:26;19.30;99.90
11140;DHT22;5624;49.388;11.350;2023-07-16T01:47:17;19.30;99.90
11140;DHT22;5624;49.388;11.350;2023-07-16T01:49:44;19.30;99.90
11140;DHT22;5624;49.388;11.350;2023-07-16T01:52:10;19.30;99.90
11140;DHT22;5624;49.388;11.350;2023-07-16T01:54:36;19.30;99.90
11140;DHT22;5624;49.388;11.350;2023-07-16T01:57:02;19.30;99.90
11140;DHT22;5624;49.388;11.350;2023-07-16T01:59:27;19.20;99.90
11140;DHT22;5624;49.388;11.350;2023-07-16T02:01:53;19.20;99.90
11140;DHT22;5624;49.388;11.350;2023-07-16T02:04:18;19.20;99.90
11140;DHT22;5624;49.388;11.350;2023-07-16T02:06:44;19.10;99.90
11140;DHT22;5624;49.388;11.350;2023-07-16T02:09:10;19.10;99.90
11140;DHT22;5624;49.388;11.350;2023-07-16T02:11:36;19.00;99.90
11140;DHT22;5624;49.388;11.350;2023-07-16T02:14:01;19.00;99.90
11140;DHT22;5624;49.388;11.350;2023-07-16T02:16:27;19.00;99.90
11140;DHT22;5624;49.388;11.350;2023-07-16T02:18:52;19.00;99.90
11140;DHT22;5624;49.388;11.350;2023-07-16T02:21:18;18.90;99.90
11140;DHT22;5624;49.388;11.350;2023-07-16T02:23:43;18.90;99.90
11140;DHT22;5624;49.388;11.350;2023-07-16T02:26:09;18.80;99.90
11140;DHT22;5624;49.388;11.350;2023-07-16T02:28:34;18.90;99.90
11140;DHT22;5624;49.388;11.350;2023-07-16T02:31:00;18.70;99.90
11140;DHT22;5624;49.388;11.350;2023-07-16T02:33:26;18.70;99.90
11140;DHT22;5624;49.388;11.350;2023-07-16T02:35:51;18.60;99.90
11140;DHT22;5624;49.388;11.350;2023-07-16T02:38:17;18.60;99.90
11140;DHT22;5624;49.388;11.350;2023-07-16T02:40:46;18.60;99.90
11140;DHT22;5624;49.388;11.350;2023-07-16T02:43:13;18.60;99.90
11140;DHT22;5624;49.388;11.350;2023-07-16T02:45:39;18.50;99.90
11140;DHT22;5624;49.388;11.350;2023-07-16T02:48:05;18.50;99.90
11140;DHT22;5624;49.388;11.350;2023-07-16T02:50:35;18.60;99.90
11140;DHT22;5624;49.388;11.350;2023-07-16T02:53:01;18.50;99.90
11140;DHT22;5624;49.388;11.350;2023-07-16T02:55:27;18.50;99.90
11140;DHT22;5624;49.388;11.350;2023-07-16T02:57:52;18.50;99.90
11140;DHT22;5624;49.388;11.350;2023-07-16T03:00:18;18.50;99.90
11140;DHT22;5624;49.388;11.350;2023-07-16T03:02:43;18.40;99.90
11140;DHT22;5624;49.388;11.350;2023-07-16T03:05:09;18.50;99.90
11140;DHT22;5624;49.388;11.350;2023-07-16T03:07:34;18.50;99.90
11140;DHT22;5624;49.388;11.350;2023-07-16T03:10:00;18.50;99.90
11140;DHT22;5624;49.388;11.350;2023-07-16T03:12:26;18.50;99.90
11140;DHT22;5624;49.388;11.350;2023-07-16T03:14:51;18.60;99.90
11140;DHT22;5624;49.388;11.350;2023-07-16T03:17:22;18.60;99.90
11140;DHT22;5624;49.388;11.350;2023-07-16T03:19:48;18.50;99.90
11140;DHT22;5624;49.388;11.350;2023-07-16T03:22:13;18.50;99.90
11140;DHT22;5624;49.388;11.350;2023-07-16T03:24:39;18.50;99.90
11140;DHT22;5624;49.388;11.350;2023-07-16T03:27:05;18.40;99.90
11140;DHT22;5624;49.388;11.350;2023-07-16T03:29:32;18.30;99.90
11140;DHT22;5624;49.388;11.350;2023-07-16T03:31:58;18.20;99.90
11140;DHT22;5624;49.388;11.350;2023-07-16T03:34:23;18.20;99.90
11140;DHT22;5624;49.388;11.350;2023-07-16T03:36:49;18.30;99.90
11140;DHT22;5624;49.388;11.350;2023-07-16T03:39:14;18.30;99.90
11140;DHT22;5624;49.388;11.350;2023-07-16T03:41:40;18.40;99.90
11140;DHT22;5624;49.388;11.350;2023-07-16T03:44:07;18.30;99.90
11140;DHT22;5624;49.388;11.350;2023-07-16T03:46:32;18.40;99.90
11140;DHT22;5624;49.388;11.350;2023-07-16T03:48:58;18.40;99.90
11140;DHT22;5624;49.388;11.350;2023-07-16T03:51:23;18.30;99.90
11140;DHT22;5624;49.388;11.350;2023-07-16T03:53:49;18.40;99.90
11140;DHT22;5624;49.388;11.350;2023-07-16T03:56:14;18.30;99.90
11140;DHT22;5624;49.388;11.350;2023-07-16T03:58:40;18.20;99.90
11140;DHT22;5624;49.388;11.350;2023-07-16T04:01:05;18.30;99.90
11140;DHT22;5624;49.388;11.350;2023-07-16T04:03:31;18.20;99.90
11140;DHT22;5624;49.388;11.350;2023-07-16T04:06:08;18.20;99.90
11140;DHT22;5624;49.388;11.350;2023-07-16T04:08:35;18.20;99.90
11140;DHT22;5624;49.388;11.350;2023-07-16T04:11:01;18.20;99.90
11140;DHT22;5624;49.388;11.350;2023-07-16T04:13:27;18.20;99.90
11140;DHT22;5624;49.388;11.350;2023-07-16T04:15:53;18.20;99.90
11140;DHT22;5624;49.388;11.350;2023-07-16T04:18:22;18.30;99.90
11140;DHT22;5624;49.388;11.350;2023-07-16T04:20:47;18.20;99.90
11140;DHT22;5624;49.388;11.350;2023-07-16T04:23:13;18.20;99.90
11140;DHT22;5624;49.388;11.350;2023-07-16T04:25:39;18.20;99.90
11140;DHT22;5624;49.388;11.350;2023-07-16T04:28:04;18.10;99.90
11140;DHT22;5624;49.388;11.350;2023-07-16T04:30:30;18.10;99.90
11140;DHT22;5624;49.388;11.350;2023-07-16T04:32:55;18.10;99.90
11140;DHT22;5624;49.388;11.350;2023-07-16T04:35:21;18.10;99.90
11140;DHT22;5624;49.388;11.350;2023-07-16T04:37:46;18.10;99.90
11140;DHT22;5624;49.388;11.350;2023-07-16T04:40:12;18.10;99.90
11140;DHT22;5624;49.388;11.350;2023-07-16T04:42:37;18.20;99.90
11140;DHT22;5624;49.388;11.350;2023-07-16T04:45:04;18.20;99.90
11140;DHT22;5624;49.388;11.350;2023-07-16T04:47:30;18.20;99.90
11140;DHT22;5624;49.388;11.350;2023-07-16T04:49:58;18.20;99.90
11140;DHT22;5624;49.388;11.350;2023-07-16T04:52:23;18.10;99.90
11140;DHT22;5624;49.388;11.350;2023-07-16T04:54:49;18.20;99.90
11140;DHT22;5624;49.388;11.350;2023-07-16T04:57:15;18.20;98.70
11140;DHT22;5624;49.388;11.350;2023-07-16T04:59:40;18.10;97.00
11140;DHT22;5624;49.388;11.350;2023-07-16T05:02:06;18.10;96.90
11140;DHT22;5624;49.388;11.350;2023-07-16T05:04:33;18.10;96.70
11140;DHT22;5624;49.388;11.350;2023-07-16T05:07:01;17.90;97.70
11140;DHT22;5624;49.388;11.350;2023-07-16T05:09:26;17.80;96.50
11140;DHT22;5624;49.388;11.350;2023-07-16T05:11:52;17.70;97.30
11140;DHT22;5624;49.388;11.350;2023-07-16T05:14:17;17.80;98.50
11140;DHT22;5624;49.388;11.350;2023-07-16T05:16:43;17.90;97.60
11140;DHT22;5624;49.388;11.350;2023-07-16T05:19:08;18.00;96.00
11140;DHT22;5624;49.388;11.350;2023-07-16T05:21:34;18.10;94.60
11140;DHT22;5624;49.388;11.350;2023-07-16T05:23:59;18.20;93.80
11140;DHT22;5624;49.388;11.350;2023-07-16T05:26:25;18.40;94.40
11140;DHT22;5624;49.388;11.350;2023-07-16T05:28:50;18.50;92.00
11140;DHT22;5624;49.388;11.350;2023-07-16T05:31:16;18.60;91.50
11140;DHT22;5624;49.388;11.350;2023-07-16T05:33:41;18.60;90.70
11140;DHT22;5624;49.388;11.350;2023-07-16T05:36:07;18.60;89.40
11140;DHT22;5624;49.388;11.350;2023-07-16T05:38:32;18.60;89.80
11140;DHT22;5624;49.388;11.350;2023-07-16T05:41:04;18.60;89.30
11140;DHT22;5624;49.388;11.350;2023-07-16T05:43:31;18.70;90.80
11140;DHT22;5624;49.388;11.350;2023-07-16T05:45:56;18.90;91.00
11140;DHT22;5624;49.388;11.350;2023-07-16T05:48:23;18.90;88.80
11140;DHT22;5624;49.388;11.350;2023-07-16T05:50:49;18.90;88.60
11140;DHT22;5624;49.388;11.350;2023-07-16T05:53:15;18.70;88.30
11140;DHT22;5624;49.388;11.350;2023-07-16T05:55:40;18.60;89.10
11140;DHT22;5624;49.388;11.350;2023-07-16T05:58:06;18.50;90.40
11140;DHT22;5624;49.388;11.350;2023-07-16T06:00:32;18.50;89.90
11140;DHT22;5624;49.388;11.350;2023-07-16T06:02:57;18.40;90.00
11140;DHT22;5624;49.388;11.350;2023-07-16T06:05:23;18.40;88.50
11140;DHT22;5624;49.388;11.350;2023-07-16T06:07:50;18.40;88.30
11140;DHT22;5624;49.388;11.350;2023-07-16T06:10:16;18.40;88.00
11140;DHT22;5624;49.388;11.350;2023-07-16T06:12:41;18.50;86.30
11140;DHT22;5624;49.388;11.350;2023-07-16T06:15:07;18.60;87.50
11140;DHT22;5624;49.388;11.350;2023-07-16T06:17:33;18.70;86.90
11140;DHT22;5624;49.388;11.350;2023-07-16T06:19:59;18.80;88.50
11140;DHT22;5624;49.388;11.350;2023-07-16T06:22:24;19.10;88.20
11140;DHT22;5624;49.388;11.350;2023-07-16T06:24:50;19.30;85.60
11140;DHT22;5624;49.388;11.350;2023-07-16T06:27:15;19.40;83.90
11140;DHT22;5624;49.388;11.350;2023-07-16T06:29:41;19.40;83.20
11140;DHT22;5624;49.388;11.350;2023-07-16T06:32:07;19.40;84.00
11140;DHT22;5624;49.388;11.350;2023-07-16T06:34:32;19.30;83.20
11140;DHT22;5624;49.388;11.350;2023-07-16T06:36:58;19.30;83.90
11140;DHT22;5624;49.388;11.350;2023-07-16T06:39:23;19.30;83.70
11140;DHT22;5624;49.388;11.350;2023-07-16T06:41:49;19.40;82.60
11140;DHT22;5624;49.388;11.350;2023-07-16T06:44:15;19.40;82.10
11140;DHT22;5624;49.388;11.350;2023-07-16T06:46:40;19.40;82.90
11140;DHT22;5624;49.388;11.350;2023-07-16T06:49:06;19.60;83.70
11140;DHT22;5624;49.388;11.350;2023-07-16T06:51:32;19.60;83.10
11140;DHT22;5624;49.388;11.350;2023-07-16T06:53:59;19.50;82.70
11140;DHT22;5624;49.388;11.350;2023-07-16T06:56:24;19.40;84.20
11140;DHT22;5624;49.388;11.350;2023-07-16T06:58:50;19.40;83.90
11140;DHT22;5624;49.388;11.350;2023-07-16T07:01:16;19.50;84.50
11140;DHT22;5624;49.388;11.350;2023-07-16T07:03:41;19.40;84.10
11140;DHT22;5624;49.388;11.350;2023-07-16T07:06:07;19.40;84.20
11140;DHT22;5624;49.388;11.350;2023-07-16T07:08:36;19.40;85.30
11140;DHT22;5624;49.388;11.350;2023-07-16T07:11:01;19.40;84.60
11140;DHT22;5624;49.388;11.350;2023-07-16T07:13:27;19.40;84.10
11140;DHT22;5624;49.388;11.350;2023-07-16T07:15:55;19.30;83.50
11140;DHT22;5624;49.388;11.350;2023-07-16T07:18:20;19.30;84.10
11140;DHT22;5624;49.388;11.350;2023-07-16T07:20:46;19.40;84.50
11140;DHT22;5624;49.388;11.350;2023-07-16T07:23:13;19.50;84.40
11140;DHT22;5624;49.388;11.350;2023-07-16T07:25:39;19.60;82.40
11140;DHT22;5624;49.388;11.350;2023-07-16T07:28:04;19.70;83.00
11140;DHT22;5624;49.388;11.350;2023-07-16T07:30:30;20.00;81.80
11140;DHT22;5624;49.388;11.350;2023-07-16T07:32:55;20.10;81.00
11140;DHT22;5624;49.388;11.350;2023-07-16T07:35:21;20.30;79.50
11140;DHT22;5624;49.388;11.350;2023-07-16T07:37:47;20.40;78.80
11140;DHT22;5624;49.388;11.350;2023-07-16T07:40:13;20.30;78.80
11140;DHT22;5624;49.388;11.350;2023-07-16T07:42:38;20.40;78.80
11140;DHT22;5624;49.388;11.350;2023-07-16T07:45:04;20.20;78.00
11140;DHT22;5624;49.388;11.350;2023-07-16T07:47:30;20.10;79.30
11140;DHT22;5624;49.388;11.350;2023-07-16T07:49:56;20.00;78.80
11140;DHT22;5624;49.388;11.350;2023-07-16T07:52:21;20.00;79.80
11140;DHT22;5624;49.388;11.350;2023-07-16T07:54:47;20.20;79.10
11140;DHT22;5624;49.388;11.350;2023-07-16T07:57:12;20.40;80.30
11140;DHT22;5624;49.388;11.350;2023-07-16T07:59:38;20.50;79.20
11140;DHT22;5624;49.388;11.350;2023-07-16T08:02:04;20.40;77.20
11140;DHT22;5624;49.388;11.350;2023-07-16T08:04:30;20.30;76.80
11140;DHT22;5624;49.388;11.350;2023-07-16T08:06:57;20.20;78.20
11140;DHT22;5624;49.388;11.350;2023-07-16T08:09:23;20.20;79.60
11140;DHT22;5624;49.388;11.350;2023-07-16T08:11:48;20.10;78.40
11140;DHT22;5624;49.388;11.350;2023-07-16T08:14:14;20.00;78.20
11140;DHT22;5624;49.388;11.350;2023-07-16T08:16:40;19.80;77.50
11140;DHT22;5624;49.388;11.350;2023-07-16T08:19:05;19.50;78.30
11140;DHT22;5624;49.388;11.350;2023-07-16T08:21:32;19.50;78.50
11140;DHT22;5624;49.388;11.350;2023-07-16T08:23:58;19.40;80.00
11140;DHT22;5624;49.388;11.350;2023-07-16T08:26:23;19.40;80.60
11140;DHT22;5624;49.388;11.350;2023-07-16T08:28:49;19.50;80.90
11140;DHT22;5624;49.388;11.350;2023-07-16T08:31:15;19.50;81.00
11140;DHT22;5624;49.388;11.350;2023-07-16T08:33:40;19.50;79.80
11140;DHT22;5624;49.388;11.350;2023-07-16T08:36:06;19.60;79.60
11140;DHT22;5624;49.388;11.350;2023-07-16T08:38:32;19.50;79.20
11140;DHT22;5624;49.388;11.350;2023-07-16T08:40:59;19.50;81.00
11140;DHT22;5624;49.388;11.350;2023-07-16T08:43:25;19.80;81.50
11140;DHT22;5624;49.388;11.350;2023-07-16T08:45:51;20.00;80.90
11140;DHT22;5624;49.388;11.350;2023-07-16T08:48:17;20.30;77.90
11140;DHT22;5624;49.388;11.350;2023-07-16T08:50:47;20.50;77.40
11140;DHT22;5624;49.388;11.350;2023-07-16T08:53:15;20.60;75.70
11140;DHT22;5624;49.388;11.350;2023-07-16T08:55:42;20.70;75.70
11140;DHT22;5624;49.388;11.350;2023-07-16T08:58:09;20.70;76.90
11140;DHT22;5624;49.388;11.350;2023-07-16T09:00:35;20.90;73.70
11140;DHT22;5624;49.388;11.350;2023-07-16T09:03:01;21.20;72.70
11140;DHT22;5624;49.388;11.350;2023-07-16T09:05:29;21.50;72.20
11140;DHT22;5624;49.388;11.350;2023-07-16T09:07:55;21.70;68.90
11140;DHT22;5624;49.388;11.350;2023-07-16T09:10:20;21.90;69.10
11140;DHT22;5624;49.388;11.350;2023-07-16T09:12:46;22.00;67.10
11140;DHT22;5624;49.388;11.350;2023-07-16T09:15:16;22.10;66.80
11140;DHT22;5624;49.388;11.350;2023-07-16T09:17:42;22.10;67.30
11140;DHT22;5624;49.388;11.350;2023-07-16T09:20:11;22.00;66.10
11140;DHT22;5624;49.388;11.350;2023-07-16T09:22:37;21.90;66.40
11140;DHT22;5624;49.388;11.350;2023-07-16T09:25:03;21.70;66.20
11140;DHT22;5624;49.388;11.350;2023-07-16T09:27:30;21.60;68.30
11140;DHT22;5624;49.388;11.350;2023-07-16T09:29:56;21.70;68.50
11140;DHT22;5624;49.388;11.350;2023-07-16T09:32:22;21.80;67.80
11140;DHT22;5624;49.388;11.350;2023-07-16T09:34:50;22.10;67.60
11140;DHT22;5624;49.388;11.350;2023-07-16T09:37:17;22.30;65.90
11140;DHT22;5624;49.388;11.350;2023-07-16T09:39:43;22.60;65.10
11140;DHT22;5624;49.388;11.350;2023-07-16T09:42:12;23.20;61.80
11140;DHT22;5624;49.388;11.350;2023-07-16T09:44:37;23.50;60.30
11140;DHT22;5624;49.388;11.350;2023-07-16T09:47:04;23.70;60.90
11140;DHT22;5624;49.388;11.350;2023-07-16T09:49:29;23.90;61.70
11140;DHT22;5624;49.388;11.350;2023-07-16T09:52:01;24.00;62.00
11140;DHT22;5624;49.388;11.350;2023-07-16T09:54:31;24.00;58.90
11140;DHT22;5624;49.388;11.350;2023-07-16T09:56:59;23.80;60.00
11140;DHT22;5624;49.388;11.350;2023-07-16T09:59:28;23.80;58.80
11140;DHT22;5624;49.388;11.350;2023-07-16T10:01:55;23.50;60.00
11140;DHT22;5624;49.388;11.350;2023-07-16T10:04:21;23.40;58.80
11140;DHT22;5624;49.388;11.350;2023-07-16T10:09:41;24.30;58.70
11140;DHT22;5624;49.388;11.350;2023-07-16T10:12:13;24.20;57.40
11140;DHT22;5624;49.388;11.350;2023-07-16T10:14:44;24.30;55.20
11140;DHT22;5624;49.388;11.350;2023-07-16T10:17:15;24.70;56.20
11140;DHT22;5624;49.388;11.350;2023-07-16T10:22:41;24.90;55.40
11140;DHT22;5624;49.388;11.350;2023-07-16T10:27:46;24.70;55.40
11140;DHT22;5624;49.388;11.350;2023-07-16T10:30:12;24.90;55.00
11140;DHT22;5624;49.388;11.350;2023-07-16T10:32:38;25.00;56.50
11140;DHT22;5624;49.388;11.350;2023-07-16T10:35:05;25.50;53.60
11140;DHT22;5624;49.388;11.350;2023-07-16T10:37:31;26.30;55.60
11140;DHT22;5624;49.388;11.350;2023-07-16T10:39:58;26.80;51.30
11140;DHT22;5624;49.388;11.350;2023-07-16T10:42:25;27.10;50.30
11140;DHT22;5624;49.388;11.350;2023-07-16T10:44:53;27.60;49.00
11140;DHT22;5624;49.388;11.350;2023-07-16T10:47:30;28.50;47.20
11140;DHT22;5624;49.388;11.350;2023-07-16T10:49:55;28.60;46.20
11140;DHT22;5624;49.388;11.350;2023-07-16T10:52:22;28.40;46.30
11140;DHT22;5624;49.388;11.350;2023-07-16T10:54:49;28.10;46.40
11140;DHT22;5624;49.388;11.350;2023-07-16T10:57:16;27.50;47.00
11140;DHT22;5624;49.388;11.350;2023-07-16T10:59:42;26.70;48.60
11140;DHT22;5624;49.388;11.350;2023-07-16T11:02:12;26.40;50.50
11140;DHT22;5624;49.388;11.350;2023-07-16T11:04:37;26.90;49.20
11140;DHT22;5624;49.388;11.350;2023-07-16T11:07:07;26.60;49.60
11140;DHT22;5624;49.388;11.350;2023-07-16T11:09:51;26.90;48.90
11140;DHT22;5624;49.388;11.350;2023-07-16T11:12:18;27.00;49.00
11140;DHT22;5624;49.388;11.350;2023-07-16T11:14:47;27.10;49.20
11140;DHT22;5624;49.388;11.350;2023-07-16T11:17:13;26.90;48.90
11140;DHT22;5624;49.388;11.350;2023-07-16T11:19:39;26.90;49.00
11140;DHT22;5624;49.388;11.350;2023-07-16T11:22:07;27.00;49.20
11140;DHT22;5624;49.388;11.350;2023-07-16T11:24:40;27.10;48.00
11140;DHT22;5624;49.388;11.350;2023-07-16T11:27:16;26.70;50.50
11140;DHT22;5624;49.388;11.350;2023-07-16T11:29:50;26.60;50.20
11140;DHT22;5624;49.388;11.350;2023-07-16T11:32:41;26.70;50.80
11140;DHT22;5624;49.388;11.350;2023-07-16T11:35:08;26.30;50.10
11140;DHT22;5624;49.388;11.350;2023-07-16T11:37:36;26.80;49.70
11140;DHT22;5624;49.388;11.350;2023-07-16T11:40:04;27.20;51.10
11140;DHT22;5624;49.388;11.350;2023-07-16T11:42:35;27.20;49.80
11140;DHT22;5624;49.388;11.350;2023-07-16T11:45:02;26.70;48.80
11140;DHT22;5624;49.388;11.350;2023-07-16T11:47:28;26.60;49.70
11140;DHT22;5624;49.388;11.350;2023-07-16T11:49:55;26.50;49.90
11140;DHT22;5624;49.388;11.350;2023-07-16T11:52:22;26.50;50.30
11140;DHT22;5624;49.388;11.350;2023-07-16T11:54:48;26.40;49.90
11140;DHT22;5624;49.388;11.350;2023-07-16T11:57:14;26.40;50.00
11140;DHT22;5624;49.388;11.350;2023-07-16T11:59:40;26.90;47.60
11140;DHT22;5624;49.388;11.350;2023-07-16T12:02:06;27.10;48.90
11140;DHT22;5624;49.388;11.350;2023-07-16T12:04:32;26.90;48.10
11140;DHT22;5624;49.388;11.350;2023-07-16T12:06:57;26.60;49.20
11140;DHT22;5624;49.388;11.350;2023-07-16T12:09:23;26.40;49.20
11140;DHT22;5624;49.388;11.350;2023-07-16T12:11:49;26.30;51.70
11140;DHT22;5624;49.388;11.350;2023-07-16T12:14:14;25.90;50.80
11140;DHT22;5624;49.388;11.350;2023-07-16T12:16:40;25.50;52.10
11140;DHT22;5624;49.388;11.350;2023-07-16T12:19:08;25.30;52.10
11140;DHT22;5624;49.388;11.350;2023-07-16T12:21:34;25.10;52.00
11140;DHT22;5624;49.388;11.350;2023-07-16T12:23:59;25.00;52.80
11140;DHT22;5624;49.388;11.350;2023-07-16T12:26:25;25.50;54.20
11140;DHT22;5624;49.388;11.350;2023-07-16T12:28:50;25.80;52.10
11140;DHT22;5624;49.388;11.350;2023-07-16T12:31:16;25.90;52.00
11140;DHT22;5624;49.388;11.350;2023-07-16T12:33:43;26.20;50.40
11140;DHT22;5624;49.388;11.350;2023-07-16T12:36:09;26.20;51.60
11140;DHT22;5624;49.388;11.350;2023-07-16T12:38:34;26.10;53.20
11140;DHT22;5624;49.388;11.350;2023-07-16T12:41:00;26.50;52.20
11140;DHT22;5624;49.388;11.350;2023-07-16T12:43:26;26.80;49.80
11140;DHT22;5624;49.388;11.350;2023-07-16T12:45:51;26.90;48.80
11140;DHT22;5624;49.388;11.350;2023-07-16T12:48:17;26.90;48.20
11140;DHT22;5624;49.388;11.350;2023-07-16T12:50:43;26.80;48.20
11140;DHT22;5624;49.388;11.350;2023-07-16T12:53:08;26.50;48.80
11140;DHT22;5624;49.388;11.350;2023-07-16T12:55:34;26.50;51.60
11140;DHT22;5624;49.388;11.350;2023-07-16T12:57:59;26.60;50.80
11140;DHT22;5624;49.388;11.350;2023-07-16T13:00:25;26.70;49.20
11140;DHT22;5624;49.388;11.350;2023-07-16T13:02:51;26.70;49.60
11140;DHT22;5624;49.388;11.350;2023-07-16T13:05:16;26.50;50.10
11140;DHT22;5624;49.388;11.350;2023-07-16T13:07:42;26.60;50.20
11140;DHT22;5624;49.388;11.350;2023-07-16T13:10:08;26.80;50.90
11140;DHT22;5624;49.388;11.350;2023-07-16T13:12:34;26.50;51.60
11140;DHT22;5624;49.388;11.350;2023-07-16T13:15:00;26.40;49.10
11140;DHT22;5624;49.388;11.350;2023-07-16T13:17:25;26.10;49.80
11140;DHT22;5624;49.388;11.350;2023-07-16T13:19:51;25.70;49.90
11140;DHT22;5624;49.388;11.350;2023-07-16T13:22:16;25.00;50.80
11140;DHT22;5624;49.388;11.350;2023-07-16T13:24:42;25.00;53.10
11140;DHT22;5624;49.388;11.350;2023-07-16T13:27:09;25.10;52.60
11140;DHT22;5624;49.388;11.350;2023-07-16T13:29:35;25.10;53.50
11140;DHT22;5624;49.388;11.350;2023-07-16T13:32:01;25.10;53.20
11140;DHT22;5624;49.388;11.350;2023-07-16T13:34:27;25.00;51.10
11140;DHT22;5624;49.388;11.350;2023-07-16T13:36:52;24.90;52.40
11140;DHT22;5624;49.388;11.350;2023-07-16T13:39:18;25.20;52.40
11140;DHT22;5624;49.388;11.350;2023-07-16T13:41:43;25.70;52.70
11140;DHT22;5624;49.388;11.350;2023-07-16T13:44:09;26.00;51.40
11140;DHT22;5624;49.388;11.350;2023-07-16T13:46:34;26.60;49.90
11140;DHT22;5624;49.388;11.350;2023-07-16T13:49:00;26.80;48.20
11140;DHT22;5624;49.388;11.350;2023-07-16T13:51:26;26.80;47.80
11140;DHT22;5624;49.388;11.350;2023-07-16T13:53:51;26.60;46.90
11140;DHT22;5624;49.388;11.350;2023-07-16T13:56:17;26.50;47.50
11140;DHT22;5624;49.388;11.350;2023-07-16T13:58:42;26.30;49.50
11140;DHT22;5624;49.388;11.350;2023-07-16T14:01:08;26.30;48.10
11140;DHT22;5624;49.388;11.350;2023-07-16T14:03:33;26.00;47.60
11140;DHT22;5624;49.388;11.350;2023-07-16T14:05:59;25.80;49.80
11140;DHT22;5624;49.388;11.350;2023-07-16T14:08:25;25.70;48.40
11140;DHT22;5624;49.388;11.350;2023-07-16T14:10:50;25.70;50.20
11140;DHT22;5624;49.388;11.350;2023-07-16T14:13:16;25.80;51.60
11140;DHT22;5624;49.388;11.350;2023-07-16T14:15:42;25.60;50.60
11140;DHT22;5624;49.388;11.350;2023-07-16T14:18:07;25.40;52.20
11140;DHT22;5624;49.388;11.350;2023-07-16T14:20:33;25.30;52.30
11140;DHT22;5624;49.388;11.350;2023-07-16T14:22:59;25.30;50.00
11140;DHT22;5624;49.388;11.350;2023-07-16T14:25:25;25.40;51.00
11140;DHT22;5624;49.388;11.350;2023-07-16T14:27:50;25.40;51.80
11140;DHT22;5624;49.388;11.350;2023-07-16T14:30:16;25.40;51.60
11140;DHT22;5624;49.388;11.350;2023-07-16T14:32:42;25.30;51.50
11140;DHT22;5624;49.388;11.350;2023-07-16T14:35:13;25.40;52.50
11140;DHT22;5624;49.388;11.350;2023-07-16T14:37:39;25.20;51.40
11140;DHT22;5624;49.388;11.350;2023-07-16T14:40:05;25.10;52.00
11140;DHT22;5624;49.388;11.350;2023-07-16T14:42:33;25.10;51.00
11140;DHT22;5624;49.388;11.350;2023-07-16T14:44:59;25.00;51.40
11140;DHT22;5624;49.388;11.350;2023-07-16T14:47:24;24.90;51.90
11140;DHT22;5624;49.388;11.350;2023-07-16T14:49:50;25.00;52.00
11140;DHT22;5624;49.388;11.350;2023-07-16T14:52:15;25.00;53.20
11140;DHT22;5624;49.388;11.350;2023-07-16T14:54:41;25.10;51.70
11140;DHT22;5624;49.388;11.350;2023-07-16T14:57:07;25.30;50.20
11140;DHT22;5624;49.388;11.350;2023-07-16T14:59:32;25.40;51.60
11140;DHT22;5624;49.388;11.350;2023-07-16T15:01:59;25.50;51.90
11140;DHT22;5624;49.388;11.350;2023-07-16T15:04:25;25.50;51.60
11140;DHT22;5624;49.388;11.350;2023-07-16T15:06:50;25.40;52.30
11140;DHT22;5624;49.388;11.350;2023-07-16T15:09:16;25.40;51.50
11140;DHT22;5624;49.388;11.350;2023-07-16T15:11:41;25.40;52.90
11140;DHT22;5624;49.388;11.350;2023-07-16T15:14:07;25.40;51.30
11140;DHT22;5624;49.388;11.350;2023-07-16T15:16:33;25.40;52.10
11140;DHT22;5624;49.388;11.350;2023-07-16T15:18:59;25.40;50.00
11140;DHT22;5624;49.388;11.350;2023-07-16T15:21:25;25.30;50.10
11140;DHT22;5624;49.388;11.350;2023-07-16T15:23:51;25.30;49.70
11140;DHT22;5624;49.388;11.350;2023-07-16T15:26:16;25.10;49.50
11140;DHT22;5624;49.388;11.350;2023-07-16T15:28:42;25.10;49.70
11140;DHT22;5624;49.388;11.350;2023-07-16T15:31:09;25.20;52.30
11140;DHT22;5624;49.388;11.350;2023-07-16T15:33:35;25.30;50.30
11140;DHT22;5624;49.388;11.350;2023-07-16T15:36:00;25.30;50.10